Rocky Dale, Vermont
Current Conditions -  °F | °C
As of 7:15 AM on Sunday 25 Jan 2015 (Local Time) from K6B0 Reporting Station
Unknown Precip Unknown Precip  
Wind Chill: 13°   Ceiling: 5000
Heat Index: 26°   Visibility: 7mi
Dew Point: 17°   Wind: 17mph
Humidity: 70%   Direction: 350°N
Pressure: 29.51"   Gusts: 25mph
Location:  44.1404°N, 73.0493°W
Report Text: K6B0 251215Z AUTO 35015G22KT 7SM UP OVC050 M03/M08 A2951 RMK AO2 T10341081
Loading
Personal Weather Stations






























Interactive Weather Map New forecast layout! Learn more

10-Day Weather Forecast

Advertisements
Track Severe Weather on mobile